Maximiano — PWPM — position and weather

sailwx.info

Track history (hours):
 
Tides and Currents Weather Stations Pressure Air Temp Water Temp Dewpoint Dewpoint Depression Visibility Wind Speed Wind Dir Waves Ship Positions

Oceanographic research ship Maximiano (Brazil)

Last reported at 2019-Oct-09 00:10 UTC. Time now 2019-Dec-11 12:02 UTC.
Position S 23°28' W 043°32'.
Warning: this ship's position is months out of date.

Type: Military. MMSI: 710481000.

Date/timePositionNaut miles runAvg speedWind from/ knotsBaromVisibWave heightAir tempDewpointWater temp
2019-Oct-09 00:10S 23°28' W 043°32'3 9.4
2019-Oct-08 23:51S 23°26' W 043°30'  
2019-Oct-03 19:41S 22°54' W 043°10'0 0.0
2019-Oct-03 19:29S 22°54' W 043°10'0 0.8
2019-Oct-03 19:00S 22°53' W 043°10'3 5.6
2019-Oct-03 18:30S 22°56' W 043°08'4 8.6
2019-Oct-03 18:00S 22°60' W 043°07'4 8.4
2019-Oct-03 17:30S 23°04' W 043°05'3 5.8
2019-Oct-03 17:00S 23°06' W 043°04'1 1.2
2019-Oct-03 16:30S 23°06' W 043°04'1 1.0
2019-Oct-03 16:00S 23°05' W 043°04'1 2.8
2019-Oct-03 15:30S 23°04' W 043°05'1 2.9
2019-Oct-03 15:00S 23°02' W 043°05'1 1.9
2019-Oct-03 14:30S 23°02' W 043°05'0 0.1
2019-Oct-03 14:00S 23°02' W 043°05'0 0.0
2019-Oct-03 13:30S 23°02' W 043°05'0 0.0
2019-Oct-03 13:00S 23°01' W 043°05'0 0.9
2019-Oct-03 12:30S 23°01' W 043°05'4 8.8
2019-Oct-03 12:00S 22°57' W 043°08'4 8.5
2019-Oct-03 11:30S 22°53' W 043°10'1 1.5
2019-Oct-03 11:00S 22°54' W 043°10'0 0.0
2019-Oct-01 15:20S 22°54' W 043°10'0 0.3
2019-Oct-01 15:00S 22°54' W 043°10'1 1.5
2019-Oct-01 14:30S 22°53' W 043°10'2 3.3
2019-Oct-01 14:00S 22°55' W 043°09'2 4.2
2019-Oct-01 13:30S 22°57' W 043°08'2 4.7
2019-Oct-01 13:00S 22°59' W 043°08'2 4.3
2019-Oct-01 12:30S 23°01' W 043°07'3 6.8
2019-Oct-01 12:00S 23°05' W 043°07'3 5.2
2019-Oct-01 11:30S 23°07' W 043°07'2 4.6
2019-Oct-01 11:00S 23°09' W 043°07'0 0.0
2019-Oct-01 10:30S 23°09' W 043°07'0 0.0
2019-Oct-01 10:00S 23°09' W 043°07'0 0.4
2019-Oct-01 09:30S 23°09' W 043°07'0 1.0
2019-Oct-01 09:01S 23°09' W 043°07'0 0.4
2019-Oct-01 08:30S 23°09' W 043°07'2 4.1
2019-Oct-01 08:00S 23°09' W 043°09'3 6.7
2019-Oct-01 07:30S 23°09' W 043°13'3 6.7
2019-Oct-01 07:00S 23°09' W 043°17'3 6.6
2019-Oct-01 06:30S 23°10' W 043°20'3 6.7
2019-Oct-01 06:00S 23°10' W 043°24'3 6.5
2019-Oct-01 05:30S 23°10' W 043°27'3 6.3
2019-Oct-01 05:00S 23°11' W 043°31'3 6.3
2019-Oct-01 04:30S 23°11' W 043°34'3 6.2
2019-Oct-01 04:00S 23°12' W 043°37'3 6.2
2019-Oct-01 03:30S 23°12' W 043°41'3 6.1
2019-Oct-01 03:00S 23°13' W 043°44'3 3.7
2019-Oct-01 02:03S 23°13' W 043°48'13 1.6
2019-Sep-30 18:04S 23°10' W 044°01'1 6.5
2019-Sep-30 17:58S 23°09' W 044°02'3 6.4
2019-Sep-30 17:30S 23°08' W 044°05'2 0.3
2019-Sep-30 10:12S 23°09' W 044°03'16 3.9
2019-Sep-30 06:07S 23°19' W 043°49'1 6.3
2019-Sep-30 06:00S 23°20' W 043°50'1 0.8
2019-Sep-30 04:46S 23°19' W 043°49'2 2.4
2019-Sep-30 04:08S 23°20' W 043°50'1 4.2
2019-Sep-30 03:56S 23°20' W 043°51'35 5.2
2019-Sep-29 21:09S 23°05' W 043°16'1 8.2
2019-Sep-29 21:00S 23°04' W 043°16'4 8.1
2019-Sep-29 20:31S 23°01' W 043°13'4 8.5
2019-Sep-29 20:00S 22°58' W 043°09'3 6.7
2019-Sep-29 19:30S 22°55' W 043°09'0 0.4
2019-Sep-29 19:00S 22°54' W 043°09'0 0.1
2019-Sep-29 18:30S 22°54' W 043°09'0 0.1
2019-Sep-29 18:00S 22°54' W 043°09'0 0.0
2019-Sep-29 17:30S 22°54' W 043°09'0 0.0
2019-Sep-29 17:00S 22°54' W 043°09'0 0.0
2019-Sep-29 16:30S 22°54' W 043°09'0 0.0
2019-Sep-29 16:00S 22°54' W 043°09'0 0.0
2019-Sep-29 15:30S 22°54' W 043°09'0 0.0
2019-Sep-29 15:00S 22°54' W 043°09'0 0.0
2019-Sep-29 14:27S 22°54' W 043°09'0 0.0
2019-Sep-29 14:00S 22°54' W 043°09'0 0.1
2019-Sep-29 13:30S 22°54' W 043°09'0 0.0
2019-Sep-29 13:00S 22°54' W 043°09'0 0.0
2019-Sep-29 12:30S 22°54' W 043°09'0 0.0
2019-Sep-29 11:57S 22°54' W 043°09'0 0.0
2019-Sep-29 11:30S 22°54' W 043°09'0 0.0
2019-Sep-29 11:00S 22°54' W 043°09'0 0.0
2019-Sep-29 10:30S 22°54' W 043°09'0 0.0
2019-Sep-29 10:00S 22°54' W 043°09'0 0.0
2019-Sep-29 09:30S 22°54' W 043°09'0 0.0
2019-Sep-29 09:00S 22°54' W 043°09'0 0.0
2019-Sep-29 08:30S 22°54' W 043°09'0 0.0
2019-Sep-29 08:00S 22°54' W 043°09'0 0.0
2019-Sep-29 07:30S 22°54' W 043°09'0 0.0
2019-Sep-29 06:57S 22°54' W 043°09'0 0.0
2019-Sep-29 06:30S 22°54' W 043°09'0 0.0
2019-Sep-29 06:00S 22°54' W 043°09'0 0.0
2019-Sep-29 05:30S 22°54' W 043°09'0 0.1
2019-Sep-29 04:57S 22°54' W 043°09'0 0.0
2019-Sep-29 04:30S 22°54' W 043°09'0 0.0
2019-Sep-29 04:00S 22°54' W 043°09'0 0.0
2019-Sep-29 03:30S 22°54' W 043°09'0 0.0
2019-Sep-29 03:01S 22°54' W 043°09'0 0.2
2019-Sep-29 02:31S 22°54' W 043°09'1 1.4
2019-Sep-29 02:00S 22°54' W 043°09'3 5.8
2019-Sep-29 01:30S 22°56' W 043°08'2 4.2
2019-Sep-29 01:01S 22°58' W 043°08'2 3.0
2019-Sep-29 00:31S 22°60' W 043°07'  
Track history (hours):
 
Tides and Currents Weather Stations Pressure Air Temp Water Temp Dewpoint Dewpoint Depression Visibility Wind Speed Wind Dir Waves Ship Positions

Oceanographic research ship Maximiano (Brazil)

Last reported at 2019-Oct-09 00:10 UTC. Time now 2019-Dec-11 12:02 UTC.
Position S 23°28' W 043°32'.
Warning: this ship's position is months out of date.

Type: Military. MMSI: 710481000.

Date/timePositionNaut miles runAvg speedWind from/ knotsBaromVisibWave heightAir tempDewpointWater temp
2019-Oct-09 00:10S 23°28' W 043°32'3 9.4
2019-Oct-08 23:51S 23°26' W 043°30'  
2019-Oct-03 19:41S 22°54' W 043°10'0 0.0
2019-Oct-03 19:29S 22°54' W 043°10'0 0.8
2019-Oct-03 19:00S 22°53' W 043°10'3 5.6
2019-Oct-03 18:30S 22°56' W 043°08'4 8.6
2019-Oct-03 18:00S 22°60' W 043°07'4 8.4
2019-Oct-03 17:30S 23°04' W 043°05'3 5.8
2019-Oct-03 17:00S 23°06' W 043°04'1 1.2
2019-Oct-03 16:30S 23°06' W 043°04'1 1.0
2019-Oct-03 16:00S 23°05' W 043°04'1 2.8
2019-Oct-03 15:30S 23°04' W 043°05'1 2.9
2019-Oct-03 15:00S 23°02' W 043°05'1 1.9
2019-Oct-03 14:30S 23°02' W 043°05'0 0.1
2019-Oct-03 14:00S 23°02' W 043°05'0 0.0
2019-Oct-03 13:30S 23°02' W 043°05'0 0.0
2019-Oct-03 13:00S 23°01' W 043°05'0 0.9
2019-Oct-03 12:30S 23°01' W 043°05'4 8.8
2019-Oct-03 12:00S 22°57' W 043°08'4 8.5
2019-Oct-03 11:30S 22°53' W 043°10'1 1.5
2019-Oct-03 11:00S 22°54' W 043°10'0 0.0
2019-Oct-01 15:20S 22°54' W 043°10'0 0.3
2019-Oct-01 15:00S 22°54' W 043°10'1 1.5
2019-Oct-01 14:30S 22°53' W 043°10'2 3.3
2019-Oct-01 14:00S 22°55' W 043°09'2 4.2
2019-Oct-01 13:30S 22°57' W 043°08'2 4.7
2019-Oct-01 13:00S 22°59' W 043°08'2 4.3
2019-Oct-01 12:30S 23°01' W 043°07'3 6.8
2019-Oct-01 12:00S 23°05' W 043°07'3 5.2
2019-Oct-01 11:30S 23°07' W 043°07'2 4.6
2019-Oct-01 11:00S 23°09' W 043°07'0 0.0
2019-Oct-01 10:30S 23°09' W 043°07'0 0.0
2019-Oct-01 10:00S 23°09' W 043°07'0 0.4
2019-Oct-01 09:30S 23°09' W 043°07'0 1.0
2019-Oct-01 09:01S 23°09' W 043°07'0 0.4
2019-Oct-01 08:30S 23°09' W 043°07'2 4.1
2019-Oct-01 08:00S 23°09' W 043°09'3 6.7
2019-Oct-01 07:30S 23°09' W 043°13'3 6.7
2019-Oct-01 07:00S 23°09' W 043°17'3 6.6
2019-Oct-01 06:30S 23°10' W 043°20'3 6.7
2019-Oct-01 06:00S 23°10' W 043°24'3 6.5
2019-Oct-01 05:30S 23°10' W 043°27'3 6.3
2019-Oct-01 05:00S 23°11' W 043°31'3 6.3
2019-Oct-01 04:30S 23°11' W 043°34'3 6.2
2019-Oct-01 04:00S 23°12' W 043°37'3 6.2
2019-Oct-01 03:30S 23°12' W 043°41'3 6.1
2019-Oct-01 03:00S 23°13' W 043°44'3 3.7
2019-Oct-01 02:03S 23°13' W 043°48'13 1.6
2019-Sep-30 18:04S 23°10' W 044°01'1 6.5
2019-Sep-30 17:58S 23°09' W 044°02'3 6.4
2019-Sep-30 17:30S 23°08' W 044°05'2 0.3
2019-Sep-30 10:12S 23°09' W 044°03'16 3.9
2019-Sep-30 06:07S 23°19' W 043°49'1 6.3
2019-Sep-30 06:00S 23°20' W 043°50'1 0.8
2019-Sep-30 04:46S 23°19' W 043°49'2 2.4
2019-Sep-30 04:08S 23°20' W 043°50'1 4.2
2019-Sep-30 03:56S 23°20' W 043°51'35 5.2
2019-Sep-29 21:09S 23°05' W 043°16'1 8.2
2019-Sep-29 21:00S 23°04' W 043°16'4 8.1
2019-Sep-29 20:31S 23°01' W 043°13'4 8.5
2019-Sep-29 20:00S 22°58' W 043°09'3 6.7
2019-Sep-29 19:30S 22°55' W 043°09'0 0.4
2019-Sep-29 19:00S 22°54' W 043°09'0 0.1
2019-Sep-29 18:30S 22°54' W 043°09'0 0.1
2019-Sep-29 18:00S 22°54' W 043°09'0 0.0
2019-Sep-29 17:30S 22°54' W 043°09'0 0.0
2019-Sep-29 17:00S 22°54' W 043°09'0 0.0
2019-Sep-29 16:30S 22°54' W 043°09'0 0.0
2019-Sep-29 16:00S 22°54' W 043°09'0 0.0
2019-Sep-29 15:30S 22°54' W 043°09'0 0.0
2019-Sep-29 15:00S 22°54' W 043°09'0 0.0
2019-Sep-29 14:27S 22°54' W 043°09'0 0.0
2019-Sep-29 14:00S 22°54' W 043°09'0 0.1
2019-Sep-29 13:30S 22°54' W 043°09'0 0.0
2019-Sep-29 13:00S 22°54' W 043°09'0 0.0
2019-Sep-29 12:30S 22°54' W 043°09'0 0.0
2019-Sep-29 11:57S 22°54' W 043°09'0 0.0
2019-Sep-29 11:30S 22°54' W 043°09'0 0.0
2019-Sep-29 11:00S 22°54' W 043°09'0 0.0
2019-Sep-29 10:30S 22°54' W 043°09'0 0.0
2019-Sep-29 10:00S 22°54' W 043°09'0 0.0
2019-Sep-29 09:30S 22°54' W 043°09'0 0.0
2019-Sep-29 09:00S 22°54' W 043°09'0 0.0
2019-Sep-29 08:30S 22°54' W 043°09'0 0.0
2019-Sep-29 08:00S 22°54' W 043°09'0 0.0
2019-Sep-29 07:30S 22°54' W 043°09'0 0.0
2019-Sep-29 06:57S 22°54' W 043°09'0 0.0
2019-Sep-29 06:30S 22°54' W 043°09'0 0.0
2019-Sep-29 06:00S 22°54' W 043°09'0 0.0
2019-Sep-29 05:30S 22°54' W 043°09'0 0.1
2019-Sep-29 04:57S 22°54' W 043°09'0 0.0
2019-Sep-29 04:30S 22°54' W 043°09'0 0.0
2019-Sep-29 04:00S 22°54' W 043°09'0 0.0
2019-Sep-29 03:30S 22°54' W 043°09'0 0.0
2019-Sep-29 03:01S 22°54' W 043°09'0 0.2
2019-Sep-29 02:31S 22°54' W 043°09'1 1.4
2019-Sep-29 02:00S 22°54' W 043°09'3 5.8
2019-Sep-29 01:30S 22°56' W 043°08'2 4.2
2019-Sep-29 01:01S 22°58' W 043°08'2 3.0
2019-Sep-29 00:31S 22°60' W 043°07'  

Dump ship's entire track history